Terminal Aerodrome Forecast
Issued by NWS

Home | Current Version | Previous Version | Text Only | Print | Product List | Glossary On
Versions: 1 2 3 4 5 6 7 8 9 10 11 12 13 14
096
FTUS43 KILX 250716 AAA
TAFDEC
TAF AMD
KDEC 250716Z 2507/2606 30008KT P6SM SKC
     FM250900 30012KT P6SM SKC
     FM251500 32012G18KT P6SM SKC
     FM260000 30005KT P6SM SKC=

USA.gov is the U.S. government's official web portal to all federal, state and local government web resources and services.